Time;durP1;ratioP1;P1;durP2;ratioP2;P2;SDS_P1;SDS_P2;PMS_P1;PMS_P2;Temp;Humidity;BMP_temperature;BMP_pressure;BME280_temperature;BME280_humidity;BME280_pressure;Samples;Min_cycle;Max_cycle;Signal;HPM_P1;HPM_P2
2020/12/09 00:00:10;;;;;;;6.67;3.60;;;;;;;1.03;92.53;97610.03;1737552;82;21607;-64
2020/12/09 00:02:41;;;;;;;3.98;2.02;;;;;;;0.97;92.59;97615.08;1721034;81;21179;-65
2020/12/09 00:05:32;;;;;;;4.30;2.60;;;;;;;0.95;92.45;97622.83;1716909;83;21648;-64
2020/12/09 00:08:01;;;;;;;2.98;2.10;;;;;;;0.90;92.41;97624.00;1657828;86;21203;-65
2020/12/09 00:10:28;;;;;;;3.00;1.95;;;;;;;0.89;92.34;97630.05;1658233;86;21194;-65
2020/12/09 00:12:56;;;;;;;3.67;2.33;;;;;;;1.08;94.30;97629.77;1658549;86;21631;-63
2020/12/09 00:19:29;;;;;;;4.78;2.95;;;;;;;1.13;95.25;97628.56;1658314;86;21340;-64
2020/12/09 02:51:58;;;;;;;3.65;2.42;;;;;;;1.13;95.25;97628.56;1656876;86;21190;-66
2020/12/09 02:56:19;;;;;;;2.25;2.02;;;;;;;1.13;95.25;97628.56;1643354;87;21159;-64
2020/12/09 03:03:08;;;;;;;3.30;1.87;;;;;;;1.13;95.25;97628.56;1643466;87;21589;-65
2020/12/09 03:05:36;;;;;;;2.72;2.25;;;;;;;1.13;95.25;97628.56;1657850;86;21624;-65
2020/12/09 03:08:05;;;;;;;3.30;2.20;;;;;;;0.07;91.82;97588.88;1643974;87;21188;-66
2020/12/09 03:10:39;;;;;;;3.17;2.08;;;;;;;0.07;91.82;97588.88;1643766;87;21572;-66
2020/12/09 03:13:08;;;;;;;3.37;2.20;;;;;;;0.07;91.82;97588.88;1643176;87;21140;-65
2020/12/09 03:15:36;;;;;;;3.95;2.02;;;;;;;0.07;91.82;97588.88;1657902;86;21176;-66
2020/12/09 03:18:04;;;;;;;4.15;1.87;;;;;;;0.06;91.53;97577.02;1644301;87;21239;-66
2020/12/09 03:20:38;;;;;;;2.62;1.22;;;;;;;0.01;91.52;97575.17;1643814;87;21254;-66
2020/12/09 03:23:05;;;;;;;2.83;2.20;;;;;;;0.01;91.52;97575.17;1643456;87;21577;-66
2020/12/09 03:25:33;;;;;;;7.22;2.67;;;;;;;-0.05;91.82;97585.74;1657810;86;21651;-66
2020/12/09 03:28:01;;;;;;;5.05;2.87;;;;;;;-0.05;91.76;97587.02;1643851;87;21179;-65
2020/12/09 03:30:29;;;;;;;2.75;2.55;;;;;;;-0.05;92.12;97587.02;1644113;87;21195;-65
2020/12/09 03:32:57;;;;;;;4.65;2.40;;;;;;;-0.06;91.82;97582.81;1643334;87;21548;-65
2020/12/09 03:35:25;;;;;;;2.70;2.33;;;;;;;-0.05;91.74;97577.63;1657952;86;21232;-65
2020/12/09 03:37:53;;;;;;;4.12;1.95;;;;;;;-0.06;92.11;97574.70;1643676;87;21144;-65
2020/12/09 03:40:21;;;;;;;4.30;2.40;;;;;;;-0.05;91.79;97567.88;1643858;87;21172;-68
2020/12/09 03:42:49;;;;;;;4.90;1.95;;;;;;;-0.06;92.13;97572.60;1643401;87;21251;-70
2020/12/09 03:45:17;;;;;;;4.08;2.67;;;;;;;-0.05;91.93;97561.05;1657846;86;21184;-68
2020/12/09 03:47:45;;;;;;;13.05;2.17;;;;;;;-0.05;91.95;97564.88;1643960;87;21589;-68
2020/12/09 03:50:13;;;;;;;4.08;2.90;;;;;;;-0.04;92.03;97569.05;1644017;87;21162;-68
2020/12/09 03:52:41;;;;;;;3.75;1.90;;;;;;;-0.04;92.04;97575.91;1634837;87;21232;-68
2020/12/09 03:55:09;;;;;;;5.53;2.80;;;;;;;-0.02;91.92;97568.97;1668504;85;21228;-70
2020/12/09 03:57:37;;;;;;;2.62;2.10;;;;;;;-0.03;91.98;97574.52;1668696;85;21174;-68
2020/12/09 04:00:06;;;;;;;2.98;2.30;;;;;;;-0.03;91.94;97572.42;1668604;85;21192;-65
2020/12/09 04:02:34;;;;;;;6.90;2.08;;;;;;;-0.03;91.73;97569.87;1654573;87;21260;-65
2020/12/09 04:05:02;;;;;;;2.83;2.35;;;;;;;-0.02;91.68;97577.45;1668671;85;21183;-67
2020/12/09 04:07:30;;;;;;;4.67;2.15;;;;;;;-0.02;91.77;97576.63;1653867;87;21609;-66
2020/12/09 04:09:58;;;;;;;4.33;2.87;;;;;;;0.01;91.61;97577.72;1668386;85;21594;-65
2020/12/09 04:12:26;;;;;;;3.95;2.30;;;;;;;0.01;91.66;97582.83;1654069;87;21228;-65
2020/12/09 04:14:54;;;;;;;3.45;1.98;;;;;;;0.03;91.68;97575.92;1668393;85;21152;-65
2020/12/09 04:17:22;;;;;;;2.50;1.98;;;;;;;0.06;91.39;97578.30;1654008;87;21184;-65
2020/12/09 04:19:50;;;;;;;2.58;1.98;;;;;;;0.03;91.38;97568.27;1668393;85;21600;-64
2020/12/09 04:22:18;;;;;;;6.47;2.80;;;;;;;0.04;91.28;97574.98;1653885;87;21268;-65
2020/12/09 04:24:46;;;;;;;1.55;1.37;;;;;;;0.02;91.19;97570.44;1668311;85;21187;-65
2020/12/09 04:27:14;;;;;;;3.37;2.17;;;;;;;0.05;90.97;97566.43;1653953;87;21601;-68
2020/12/09 04:29:42;;;;;;;2.20;1.57;;;;;;;0.03;90.87;97565.71;1668775;85;21581;-64
2020/12/09 04:32:31;;;;;;;1.80;1.37;;;;;;;0.03;91.05;97559.78;1654653;87;21228;-67
2020/12/09 04:35:00;;;;;;;13.18;2.20;;;;;;;0.05;90.80;97571.53;1610940;88;21184;-68
2020/12/09 04:37:28;;;;;;;6.65;2.83;;;;;;;-0.01;90.90;97563.79;1611489;88;21176;-64
2020/12/09 04:39:57;;;;;;;6.90;2.42;;;;;;;-0.03;91.02;97564.77;1612069;88;21153;-66
2020/12/09 04:42:27;;;;;;;1.60;1.47;;;;;;;-0.03;91.03;97560.94;1611514;88;21328;-65
2020/12/09 04:44:55;;;;;;;4.62;2.75;;;;;;;-0.05;91.20;97562.77;1611081;88;21199;-65
2020/12/09 04:47:41;;;;;;;4.55;2.65;;;;;;;-0.06;91.29;97568.33;1555098;91;21223;-65
2020/12/09 04:50:13;;;;;;;3.92;2.20;;;;;;;-0.06;91.23;97575.98;1555247;91;22537;-65
2020/12/09 04:52:49;;;;;;;2.25;2.05;;;;;;;-0.10;91.23;97576.23;1555385;91;21212;-64
2020/12/09 04:55:18;;;;;;;5.20;2.10;;;;;;;-0.19;91.28;97559.70;1600404;88;21565;-66
2020/12/09 04:58:41;;;;;;;3.20;1.75;;;;;;;-0.16;91.22;97557.45;1555131;91;21212;-67
2020/12/09 05:01:12;;;;;;;2.75;2.20;;;;;;;-0.17;91.15;97558.36;1560112;91;21304;-66
2020/12/09 05:04:02;;;;;;;2.30;1.90;;;;;;;-0.22;91.27;97570.09;1672406;86;21597;-66
2020/12/09 05:06:30;;;;;;;2.90;2.33;;;;;;;-0.20;91.21;97571.30;1664180;86;21168;-66
2020/12/09 05:09:00;;;;;;;5.83;1.87;;;;;;;-0.19;91.20;97574.19;1664141;85;21173;-66
2020/12/09 05:11:28;;;;;;;2.90;1.82;;;;;;;-0.21;91.47;97575.58;1664324;86;21236;-66
2020/12/09 05:13:59;;;;;;;2.92;2.45;;;;;;;-0.20;91.33;97580.23;1664217;86;21306;-66
2020/12/09 05:16:27;;;;;;;2.45;1.92;;;;;;;-0.22;91.22;97587.13;1655586;86;21185;-66
2020/12/09 05:19:01;;;;;;;4.17;3.02;;;;;;;-0.23;91.08;97579.09;1655782;87;21212;-65
2020/12/09 05:21:29;;;;;;;3.35;2.75;;;;;;;-0.26;91.50;97581.83;1655455;86;21204;-66
2020/12/09 05:23:59;;;;;;;1.92;1.75;;;;;;;-0.23;91.10;97582.92;1655683;85;21208;-66
2020/12/09 05:26:34;;;;;;;3.42;2.60;;;;;;;-0.26;91.45;97581.38;1655510;87;21169;-65
2020/12/09 05:32:05;;;;;;;6.28;2.67;;;;;;;-0.28;91.46;97581.11;1665830;85;21652;-66
2020/12/09 05:34:34;;;;;;;6.78;2.85;;;;;;;-0.28;91.46;97581.11;1666348;85;21163;-67
2020/12/09 05:37:06;;;;;;;5.65;3.50;;;;;;;-0.29;91.53;97581.55;1679722;85;21188;-68
2020/12/09 05:39:37;;;;;;;3.12;2.83;;;;;;;-0.31;91.52;97574.42;1683652;85;21207;-67
2020/12/09 05:42:35;;;;;;;4.22;3.30;;;;;;;-0.28;91.59;97568.34;1682157;85;21191;-67
2020/12/09 05:45:14;;;;;;;3.52;2.40;;;;;;;-0.31;91.53;97574.42;1628305;88;21220;-66
2020/12/09 05:47:42;;;;;;;2.85;2.00;;;;;;;-0.26;91.66;97572.45;1656391;86;21180;-66
2020/12/09 05:50:10;;;;;;;14.43;2.75;;;;;;;-0.24;91.38;97570.65;1656304;87;21220;-67
2020/12/09 05:52:39;;;;;;;4.90;3.25;;;;;;;-0.24;91.46;97568.09;1656575;87;21600;-65
2020/12/09 05:55:08;;;;;;;2.70;2.50;;;;;;;-0.20;91.54;97563.19;1656414;86;21275;-67
2020/12/09 05:57:35;;;;;;;2.55;2.20;;;;;;;-0.19;91.24;97558.43;1667833;86;21621;-64
2020/12/09 06:00:09;;;;;;;3.92;3.52;;;;;;;-0.21;91.15;97554.33;1649414;86;21181;-65
2020/12/09 06:02:39;;;;;;;4.37;2.23;;;;;;;-0.16;90.88;97565.94;1640997;86;21217;-70
2020/12/09 06:05:08;;;;;;;3.17;2.77;;;;;;;-0.09;90.98;97570.23;1678228;85;21737;-66
2020/12/09 06:07:36;;;;;;;5.85;3.00;;;;;;;-0.09;90.98;97570.23;1677915;85;21735;-66
2020/12/09 06:10:17;;;;;;;4.05;2.37;;;;;;;-0.12;90.54;97567.38;1676816;85;21200;-66
2020/12/09 06:12:58;;;;;;;3.08;2.77;;;;;;;-0.08;90.33;97574.44;1676819;85;21681;-66
2020/12/09 06:15:29;;;;;;;3.72;3.00;;;;;;;-0.06;90.20;97575.16;1676680;85;21172;-69
2020/12/09 06:18:06;;;;;;;4.10;2.12;;;;;;;-0.06;90.17;97572.60;1677028;85;21251;-69
2020/12/09 06:20:36;;;;;;;3.85;2.80;;;;;;;-0.02;90.09;97579.18;1677758;85;21652;-70
2020/12/09 06:23:14;;;;;;;4.40;2.27;;;;;;;-0.01;90.02;97588.49;1676608;85;21196;-70
2020/12/09 06:25:46;;;;;;;3.52;2.47;;;;;;;-0.02;89.88;97594.05;1626615;86;21173;-70
2020/12/09 06:28:17;;;;;;;3.40;2.67;;;;;;;0.00;89.81;97592.21;1629371;87;21178;-70
2020/12/09 06:30:45;;;;;;;3.80;2.33;;;;;;;0.03;89.62;97598.07;1629358;88;21606;-70
2020/12/09 06:33:33;;;;;;;2.55;1.98;;;;;;;0.05;89.62;97594.96;1640620;86;21223;-69
2020/12/09 06:36:40;;;;;;;2.08;1.70;;;;;;;0.09;89.83;97601.09;1678507;84;21649;-70
2020/12/09 06:39:17;;;;;;;3.80;1.65;;;;;;;0.12;89.69;97598.84;1697546;84;21295;-69
2020/12/09 06:41:59;;;;;;;4.20;2.85;;;;;;;0.14;89.70;97590.17;1697472;84;21307;-69
2020/12/09 06:44:30;;;;;;;1.95;1.77;;;;;;;0.18;89.70;97589.53;1697640;84;21413;-71
2020/12/09 06:47:00;;;;;;;10.00;2.15;;;;;;;0.21;89.66;97592.73;1689098;84;21175;-70
2020/12/09 06:49:41;;;;;;;2.15;1.95;;;;;;;0.23;89.50;97598.59;1683721;85;21669;-71
2020/12/09 06:52:14;;;;;;;8.60;2.20;;;;;;;0.28;89.39;97602.13;1683886;84;21171;-72
2020/12/09 06:54:48;;;;;;;2.83;1.82;;;;;;;0.29;89.31;97596.12;1684686;84;21592;-69
2020/12/09 06:57:36;;;;;;;2.42;2.02;;;;;;;0.32;89.20;97593.38;1691828;85;21219;-71
2020/12/09 07:03:06;;;;;;;5.63;3.00;;;;;;;0.39;89.00;97602.33;1726139;82;21164;-70
2020/12/09 07:05:34;;;;;;;3.02;2.42;;;;;;;0.41;89.17;97597.97;1720762;83;21136;-70
2020/12/09 07:08:05;;;;;;;3.27;2.75;;;;;;;0.45;89.17;97593.05;1726177;83;21168;-70
2020/12/09 07:10:34;;;;;;;3.17;2.85;;;;;;;0.46;89.17;97596.80;1726137;82;21180;-71
2020/12/09 07:13:10;;;;;;;5.00;2.92;;;;;;;0.51;89.27;97595.23;1726275;82;21204;-70
2020/12/09 07:15:45;;;;;;;5.42;3.45;;;;;;;0.57;89.28;97594.06;1726252;83;21607;-70
2020/12/09 07:18:14;;;;;;;2.62;2.42;;;;;;;0.63;89.08;97574.08;1734215;81;21161;-70
2020/12/09 07:20:42;;;;;;;5.40;4.15;;;;;;;0.63;89.08;97574.08;1726200;82;21169;-70
2020/12/09 07:23:11;;;;;;;5.95;3.20;;;;;;;0.75;88.78;97582.75;1726605;83;21719;-71
2020/12/09 07:25:40;;;;;;;5.42;3.95;;;;;;;0.85;88.99;97588.52;1726622;82;21153;-70
2020/12/09 07:28:08;;;;;;;3.75;2.50;;;;;;;0.91;88.49;97589.41;1726331;82;21153;-70
2020/12/09 07:30:36;;;;;;;3.10;2.37;;;;;;;0.98;88.43;97586.02;1726191;82;21598;-70
2020/12/09 07:33:04;;;;;;;5.53;2.80;;;;;;;1.05;88.38;97591.13;1726019;83;21229;-70
2020/12/09 07:35:32;;;;;;;4.22;2.40;;;;;;;1.13;87.91;97594.03;1729862;80;21613;-72
2020/12/09 07:38:00;;;;;;;8.75;4.65;;;;;;;1.21;87.84;97598.23;1726199;82;21740;-72
2020/12/09 07:40:32;;;;;;;5.85;2.92;;;;;;;1.33;87.79;97599.20;1726265;82;21157;-69
2020/12/09 07:43:10;;;;;;;6.42;3.33;;;;;;;1.41;87.00;97588.88;1726255;82;21164;-68
2020/12/09 07:45:43;;;;;;;6.28;2.85;;;;;;;1.54;87.30;97586.38;1726234;82;21157;-69
2020/12/09 07:48:19;;;;;;;3.15;2.08;;;;;;;1.64;86.49;97582.30;1726003;82;21345;-69
2020/12/09 07:50:51;;;;;;;6.53;3.62;;;;;;;1.76;87.41;97588.39;1726050;82;21134;-69
2020/12/09 07:53:20;;;;;;;4.80;2.37;;;;;;;1.84;85.68;97595.95;1726202;83;21265;-69
2020/12/09 07:55:48;;;;;;;3.80;2.72;;;;;;;1.94;85.98;97598.76;1726357;82;21319;-71
2020/12/09 07:58:19;;;;;;;3.98;2.05;;;;;;;2.08;85.34;97602.52;1730233;82;21209;-71
2020/12/09 08:00:49;;;;;;;3.35;2.45;;;;;;;2.18;84.85;97604.84;1731017;80;21235;-71
2020/12/09 08:03:39;;;;;;;4.53;3.00;;;;;;;2.30;84.66;97598.91;1718788;83;21157;-72
2020/12/09 08:06:07;;;;;;;4.30;2.58;;;;;;;2.42;84.12;97589.59;1723575;82;21519;-71
2020/12/09 08:08:35;;;;;;;7.00;3.33;;;;;;;2.61;83.78;97587.91;1715854;81;21201;-70
2020/12/09 08:11:07;;;;;;;4.05;2.70;;;;;;;2.73;82.37;97596.06;1723793;83;21176;-70
2020/12/09 08:13:35;;;;;;;5.42;3.02;;;;;;;2.91;82.46;97597.41;1718569;83;21724;-71
2020/12/09 08:16:07;;;;;;;4.90;2.75;;;;;;;3.16;82.06;97592.22;1721085;83;21147;-71
2020/12/09 08:18:36;;;;;;;6.83;3.20;;;;;;;3.43;81.32;97586.09;1674372;85;21187;-70
2020/12/09 08:21:05;;;;;;;4.78;3.35;;;;;;;3.76;80.25;97593.98;1719807;81;21211;-72
2020/12/09 08:23:46;;;;;;;6.25;2.72;;;;;;;4.06;79.36;97601.23;1717257;82;21561;-72
2020/12/09 08:26:30;;;;;;;10.58;3.27;;;;;;;4.42;78.01;97593.87;1716129;83;21172;-71
2020/12/09 08:29:00;;;;;;;6.00;3.45;;;;;;;4.82;78.74;97590.43;1716031;83;21164;-71
2020/12/09 08:31:29;;;;;;;5.97;3.58;;;;;;;5.27;75.97;97586.90;1716209;83;21199;-70
2020/12/09 08:33:58;;;;;;;5.05;2.50;;;;;;;5.68;75.57;97581.09;1716165;83;21167;-71
2020/12/09 08:36:26;;;;;;;10.75;3.22;;;;;;;6.01;73.13;97577.59;1715863;83;21687;-70
2020/12/09 08:39:01;;;;;;;9.13;2.90;;;;;;;6.36;68.92;97583.29;1715830;83;21591;-71
2020/12/09 08:41:54;;;;;;;4.10;2.77;;;;;;;6.85;72.18;97581.81;1716190;83;21175;-71
2020/12/09 08:44:25;;;;;;;5.50;3.02;;;;;;;7.15;67.92;97583.09;1745804;81;21629;-70
2020/12/09 08:46:55;;;;;;;5.78;3.50;;;;;;;7.15;65.24;97581.80;1744476;81;21144;-67
2020/12/09 08:49:23;;;;;;;9.93;4.78;;;;;;;7.22;66.68;97576.92;1745914;81;21163;-68
2020/12/09 08:51:52;;;;;;;5.92;3.75;;;;;;;7.76;65.72;97570.86;1745901;81;21219;-70
2020/12/09 08:54:20;;;;;;;9.35;3.80;;;;;;;7.69;64.85;97567.66;1745660;82;21146;-71
2020/12/09 08:56:47;;;;;;;5.17;3.45;;;;;;;8.21;64.80;97571.12;1745827;82;21171;-70
2020/12/09 08:59:16;;;;;;;5.12;3.35;;;;;;;8.17;64.51;97569.76;1745783;82;21164;-71
2020/12/09 09:01:44;;;;;;;4.92;3.72;;;;;;;8.06;63.23;97563.44;1745927;81;21164;-71
2020/12/09 09:04:14;;;;;;;3.45;2.35;;;;;;;8.58;61.59;97554.42;1746021;82;21124;-75
2020/12/09 09:06:42;;;;;;;5.55;2.58;;;;;;;8.74;60.68;97552.07;1745913;82;21164;-72
2020/12/09 09:09:13;;;;;;;5.50;2.90;;;;;;;8.82;59.98;97552.19;1746030;82;21549;-72
2020/12/09 09:11:41;;;;;;;4.05;2.77;;;;;;;8.80;60.94;97544.20;1745777;81;21599;-74
2020/12/09 09:14:10;;;;;;;6.87;3.65;;;;;;;9.26;60.52;97544.64;1742514;81;21184;-72
2020/12/09 09:16:38;;;;;;;5.80;2.90;;;;;;;8.76;60.47;97543.67;1745932;81;21128;-71
2020/12/09 09:19:06;;;;;;;3.47;1.70;;;;;;;9.01;59.38;97545.63;1746090;82;21168;-72
2020/12/09 09:21:34;;;;;;;4.80;2.55;;;;;;;9.33;59.55;97541.80;1746151;81;21550;-71
2020/12/09 09:24:02;;;;;;;2.33;2.00;;;;;;;9.71;58.37;97534.25;1745864;82;21192;-71
2020/12/09 09:26:36;;;;;;;5.70;1.80;;;;;;;9.40;58.48;97522.11;1745888;81;21637;-71
2020/12/09 09:29:05;;;;;;;5.33;2.17;;;;;;;9.75;58.86;97523.91;1745792;81;21187;-70
2020/12/09 09:31:33;;;;;;;4.65;2.40;;;;;;;9.65;56.64;97523.19;1746176;81;21136;-71
2020/12/09 09:34:01;;;;;;;6.22;2.00;;;;;;;9.95;58.15;97537.07;1745804;81;21607;-71
2020/12/09 09:36:33;;;;;;;3.05;2.10;;;;;;;10.23;54.95;97528.23;1746152;82;21260;-70
2020/12/09 09:39:03;;;;;;;3.62;1.35;;;;;;;10.76;54.60;97528.11;1745850;82;21161;-72
2020/12/09 09:41:31;;;;;;;2.72;2.00;;;;;;;10.25;54.81;97515.12;1746181;81;21208;-71
2020/12/09 09:43:59;;;;;;;3.87;2.10;;;;;;;10.12;55.32;97519.36;1728849;82;21125;-70
2020/12/09 09:46:27;;;;;;;4.30;2.02;;;;;;;10.11;55.13;97525.54;1724864;82;21176;-70
2020/12/09 09:48:55;;;;;;;3.42;2.52;;;;;;;9.67;56.98;97519.47;1724837;83;21177;-69
2020/12/09 09:51:23;;;;;;;4.12;2.37;;;;;;;9.75;55.84;97514.36;1725190;82;21694;-69
2020/12/09 09:53:51;;;;;;;4.75;1.85;;;;;;;9.63;56.51;97519.43;1725073;82;21176;-69
2020/12/09 09:56:19;;;;;;;3.83;1.72;;;;;;;9.32;58.11;97522.02;1724844;83;21165;-69
2020/12/09 09:58:47;;;;;;;2.65;1.70;;;;;;;9.40;56.89;97509.97;1736161;82;21557;-69
2020/12/09 10:01:16;;;;;;;2.98;1.65;;;;;;;10.03;55.82;97515.57;1740301;82;21176;-70
2020/12/09 10:03:44;;;;;;;3.60;2.00;;;;;;;9.49;55.47;97512.17;1740207;82;21188;-69
2020/12/09 10:06:12;;;;;;;2.20;1.47;;;;;;;9.35;56.17;97508.77;1739581;82;21156;-68
2020/12/09 10:08:40;;;;;;;1.55;1.07;;;;;;;8.95;57.57;97503.45;1738942;82;21180;-68
2020/12/09 10:11:08;;;;;;;2.58;1.40;;;;;;;8.74;57.53;97504.66;1739902;82;21157;-68
2020/12/09 10:13:36;;;;;;;2.20;1.40;;;;;;;8.29;59.44;97514.84;1739966;82;21188;-71
2020/12/09 10:16:04;;;;;;;3.60;2.27;;;;;;;8.18;59.83;97515.80;1740165;82;21225;-72
2020/12/09 10:18:32;;;;;;;3.05;2.02;;;;;;;8.10;60.31;97507.43;1739955;82;21204;-69
2020/12/09 10:21:00;;;;;;;3.72;2.30;;;;;;;8.14;60.19;97504.09;1739967;82;21208;-68
2020/12/09 10:23:28;;;;;;;2.55;2.10;;;;;;;7.96;60.77;97501.41;1740086;82;21191;-68
2020/12/09 10:25:57;;;;;;;2.15;1.50;;;;;;;7.96;61.76;97491.06;1739998;82;21164;-68
2020/12/09 10:28:25;;;;;;;2.47;1.50;;;;;;;8.02;61.24;97489.67;1739960;82;21196;-68
2020/12/09 10:30:53;;;;;;;2.75;1.57;;;;;;;8.01;61.34;97486.77;1739195;82;21204;-68
2020/12/09 10:33:21;;;;;;;4.00;2.15;;;;;;;8.06;61.38;97493.14;1735619;81;21606;-68
2020/12/09 10:35:49;;;;;;;3.00;1.70;;;;;;;8.27;61.84;97490.39;1696032;84;21588;-68
2020/12/09 10:38:17;;;;;;;2.65;1.60;;;;;;;8.76;59.73;97481.53;1687808;84;21164;-69
2020/12/09 10:40:45;;;;;;;2.40;1.40;;;;;;;9.18;58.40;97476.71;1693814;84;21165;-70
2020/12/09 10:43:14;;;;;;;2.37;1.72;;;;;;;9.92;56.68;97474.62;1687506;84;21313;-67
2020/12/09 10:45:43;;;;;;;1.90;1.52;;;;;;;9.64;55.80;97464.03;1727282;83;21156;-68
2020/12/09 10:48:11;;;;;;;2.17;1.57;;;;;;;9.46;55.44;97458.83;1725136;83;21228;-69
2020/12/09 10:50:39;;;;;;;3.55;1.70;;;;;;;9.59;56.62;97455.06;1734805;81;21148;-68
2020/12/09 10:53:07;;;;;;;2.90;1.72;;;;;;;9.57;55.77;97445.34;1727555;82;21157;-68
2020/12/09 10:55:36;;;;;;;2.55;1.52;;;;;;;9.49;57.00;97446.87;1725128;83;21260;-70
2020/12/09 10:58:05;;;;;;;3.42;2.10;;;;;;;10.06;54.29;97446.52;1732522;81;21673;-69
2020/12/09 11:00:33;;;;;;;3.47;1.60;;;;;;;10.41;53.47;97445.15;1727240;81;21172;-69
2020/12/09 11:03:01;;;;;;;2.25;1.70;;;;;;;10.19;53.86;97440.01;1719154;83;21594;-70
2020/12/09 11:05:29;;;;;;;4.05;1.72;;;;;;;10.47;52.97;97454.91;1719233;83;21188;-72
2020/12/09 11:07:57;;;;;;;2.92;1.77;;;;;;;10.61;52.32;97450.93;1719428;83;21164;-71
2020/12/09 11:10:25;;;;;;;3.05;1.70;;;;;;;10.64;51.49;97452.73;1731924;81;21565;-74
2020/12/09 11:12:53;;;;;;;2.02;1.57;;;;;;;10.80;51.25;97453.29;1736058;81;21161;-71
2020/12/09 11:15:21;;;;;;;1.47;1.02;;;;;;;11.32;50.19;97450.05;1753496;81;21184;-71
2020/12/09 11:17:49;;;;;;;2.42;1.82;;;;;;;11.45;49.08;97438.67;1753625;81;21242;-71
2020/12/09 11:20:17;;;;;;;2.17;1.35;;;;;;;11.91;48.67;97441.16;1748857;81;21555;-72
2020/12/09 11:22:45;;;;;;;4.00;2.20;;;;;;;12.50;46.62;97433.91;1740546;81;21125;-71
2020/12/09 11:25:13;;;;;;;4.33;1.62;;;;;;;12.90;46.95;97426.44;1753478;81;21133;-71
2020/12/09 11:27:41;;;;;;;2.62;2.00;;;;;;;13.07;45.80;97422.26;1753184;81;21232;-71
2020/12/09 11:30:10;;;;;;;2.85;1.70;;;;;;;12.43;46.85;97427.26;1738215;81;21207;-71
2020/12/09 11:32:38;;;;;;;2.47;1.60;;;;;;;12.12;47.45;97415.94;1731570;81;21136;-71
2020/12/09 11:35:06;;;;;;;2.30;1.27;;;;;;;11.85;47.95;97430.12;1734711;81;21118;-71
2020/12/09 11:37:35;;;;;;;2.55;1.62;;;;;;;12.20;47.53;97418.53;1734787;81;21197;-71
2020/12/09 11:40:04;;;;;;;1.98;1.60;;;;;;;11.79;47.90;97425.06;1724319;82;21181;-71
2020/12/09 11:42:38;;;;;;;3.17;1.50;;;;;;;11.94;47.86;97423.95;1737377;81;21642;-72
2020/12/09 11:45:07;;;;;;;1.87;1.20;;;;;;;11.08;49.43;97430.02;1730883;81;21558;-72
2020/12/09 11:47:36;;;;;;;2.42;1.37;;;;;;;10.69;50.50;97426.30;1740398;81;21197;-69
2020/12/09 11:50:07;;;;;;;3.27;2.20;;;;;;;10.31;51.77;97428.38;1731594;81;21254;-69
2020/12/09 11:52:35;;;;;;;3.30;1.75;;;;;;;10.29;51.95;97427.73;1734753;81;21165;-69
2020/12/09 11:55:03;;;;;;;2.80;1.92;;;;;;;10.17;52.94;97423.77;1724201;81;21517;-69
2020/12/09 11:57:32;;;;;;;3.40;1.75;;;;;;;10.64;51.45;97422.88;1723708;82;21179;-69
2020/12/09 11:59:59;;;;;;;3.72;1.90;;;;;;;11.11;50.32;97416.70;1718058;83;21117;-70
2020/12/09 12:02:27;;;;;;;3.58;2.00;;;;;;;11.35;49.76;97421.95;1730772;81;21323;-70
2020/12/09 12:04:56;;;;;;;5.80;1.50;;;;;;;11.96;48.53;97421.16;1726020;81;21319;-70
2020/12/09 12:07:24;;;;;;;3.17;1.52;;;;;;;12.12;47.40;97424.56;1724950;82;21501;-71
2020/12/09 12:09:52;;;;;;;4.37;2.12;;;;;;;12.70;47.18;97424.23;1724886;83;21169;-71
2020/12/09 12:12:20;;;;;;;6.60;3.35;;;;;;;12.07;47.24;97424.23;1724981;83;21791;-70
2020/12/09 12:14:48;;;;;;;5.42;2.85;;;;;;;12.85;46.39;97412.61;1724875;82;21189;-70
2020/12/09 12:17:15;;;;;;;2.77;2.22;;;;;;;12.99;45.09;97411.09;1724931;83;21177;-74
2020/12/09 12:19:43;;;;;;;4.67;2.12;;;;;;;14.22;42.55;97412.13;1724947;82;21189;-74
2020/12/09 12:22:11;;;;;;;79.85;32.80;;;;;;;14.61;41.68;97416.63;1725014;83;21368;-72
2020/12/09 12:24:39;;;;;;;6.65;3.85;;;;;;;15.46;40.37;97406.34;1725061;82;21177;-71
2020/12/09 12:27:07;;;;;;;9.10;5.55;;;;;;;14.91;40.67;97403.52;1725107;83;21175;-74
2020/12/09 12:29:35;;;;;;;4.87;2.87;;;;;;;16.66;37.93;97403.64;1715707;82;21163;-72
2020/12/09 12:32:03;;;;;;;2.65;1.80;;;;;;;15.55;39.46;97398.72;1725121;82;21229;-73
2020/12/09 12:34:31;;;;;;;3.12;1.70;;;;;;;16.83;37.47;97389.21;1724921;82;21642;-72
2020/12/09 12:36:59;;;;;;;4.15;2.30;;;;;;;16.44;36.77;97392.42;1724932;83;21205;-73
2020/12/09 12:39:27;;;;;;;3.77;1.75;;;;;;;15.78;37.72;97388.53;1725049;82;21192;-73
2020/12/09 12:41:55;;;;;;;4.83;1.55;;;;;;;16.33;37.47;97394.27;1724795;83;21327;-73
2020/12/09 12:44:24;;;;;;;2.50;1.30;;;;;;;16.09;37.27;97392.91;1719505;81;21150;-73
2020/12/09 12:46:52;;;;;;;5.62;2.50;;;;;;;15.00;39.19;97400.63;1715997;83;21186;-73
2020/12/09 12:49:19;;;;;;;6.85;2.35;;;;;;;14.65;40.50;97401.39;1715960;83;21189;-73
2020/12/09 12:51:47;;;;;;;2.25;1.62;;;;;;;14.80;39.95;97407.91;1716020;83;21170;-73
2020/12/09 12:54:15;;;;;;;4.25;1.57;;;;;;;14.14;40.59;97405.67;1716022;83;21118;-72
2020/12/09 12:56:43;;;;;;;4.37;1.75;;;;;;;14.43;40.06;97411.45;1715812;83;21138;-73
2020/12/09 12:59:11;;;;;;;4.28;2.25;;;;;;;14.30;40.43;97398.98;1714261;83;21160;-72
2020/12/09 13:01:39;;;;;;;6.65;1.27;;;;;;;13.39;42.37;97406.95;1714344;83;21573;-72
2020/12/09 13:04:08;;;;;;;5.53;1.67;;;;;;;13.38;42.52;97405.34;1714318;84;21196;-72
2020/12/09 13:06:36;;;;;;;10.88;5.83;;;;;;;12.60;44.79;97400.19;1714345;83;21164;-72
2020/12/09 13:09:03;;;;;;;12.53;7.62;;;;;;;12.26;45.79;97404.34;1714436;83;21208;-71
2020/12/09 13:11:31;;;;;;;10.68;2.20;;;;;;;11.57;46.69;97406.19;1714467;84;21144;-72
2020/12/09 13:13:59;;;;;;;3.33;1.70;;;;;;;11.02;48.46;97411.14;1714314;84;21188;-71
2020/12/09 13:16:27;;;;;;;3.35;1.72;;;;;;;10.95;48.72;97407.55;1714395;84;21244;-71
2020/12/09 13:18:55;;;;;;;4.33;1.42;;;;;;;10.31;49.86;97404.23;1714321;84;22256;-71
2020/12/09 13:21:26;;;;;;;3.60;1.60;;;;;;;10.41;49.90;97406.22;1714457;84;21125;-69
2020/12/09 13:23:54;;;;;;;3.12;1.57;;;;;;;10.04;50.75;97407.75;1714381;84;21176;-70
2020/12/09 13:26:23;;;;;;;8.68;2.27;;;;;;;9.93;51.46;97411.89;1714728;84;21395;-69
2020/12/09 13:28:51;;;;;;;7.42;4.55;;;;;;;9.76;52.49;97406.28;1715535;83;21138;-66
2020/12/09 13:31:19;;;;;;;3.58;2.47;;;;;;;9.47;53.18;97408.64;1715957;83;21139;-68
2020/12/09 13:33:47;;;;;;;4.80;1.80;;;;;;;9.54;52.98;97407.07;1715974;83;21566;-72
2020/12/09 13:36:23;;;;;;;10.15;4.37;;;;;;;9.01;55.04;97413.55;1716129;83;21103;-71
2020/12/09 13:38:53;;;;;;;6.95;2.95;;;;;;;9.13;54.52;97416.74;1715821;83;21132;-69
2020/12/09 13:41:22;;;;;;;6.17;2.87;;;;;;;8.94;55.29;97411.69;1715883;83;21158;-68
2020/12/09 13:43:50;;;;;;;6.35;2.98;;;;;;;8.93;55.19;97408.76;1716036;82;21191;-70
2020/12/09 13:46:18;;;;;;;11.65;3.25;;;;;;;8.82;55.90;97412.38;1727978;82;21602;-70
2020/12/09 13:48:46;;;;;;;6.65;4.05;;;;;;;8.73;56.41;97409.34;1724794;82;21173;-70
2020/12/09 13:51:14;;;;;;;12.03;4.78;;;;;;;8.48;56.80;97406.94;1724740;83;21585;-70
2020/12/09 13:53:42;;;;;;;6.08;2.83;;;;;;;8.25;58.28;97412.61;1724817;83;21152;-70
2020/12/09 13:56:12;;;;;;;4.20;2.80;;;;;;;8.13;59.11;97409.85;1722256;82;21138;-71
2020/12/09 13:58:40;;;;;;;5.55;3.30;;;;;;;7.90;60.00;97414.03;1724894;82;21156;-70
2020/12/09 14:01:13;;;;;;;5.85;2.87;;;;;;;7.83;60.33;97406.98;1725023;82;21645;-70
2020/12/09 14:03:41;;;;;;;7.45;3.75;;;;;;;7.93;59.70;97393.09;1725136;82;21229;-70
2020/12/09 14:06:09;;;;;;;8.00;3.60;;;;;;;7.70;61.44;97401.30;1724686;82;21306;-70
2020/12/09 14:08:37;;;;;;;13.08;3.58;;;;;;;7.69;61.46;97398.38;1724304;83;21145;-70
2020/12/09 14:11:05;;;;;;;15.15;6.80;;;;;;;7.42;62.75;97395.20;1724900;82;21590;-70
2020/12/09 14:13:33;;;;;;;17.48;5.62;;;;;;;7.27;63.84;97391.41;1725064;82;21169;-70
2020/12/09 14:16:01;;;;;;;9.03;4.60;;;;;;;7.16;64.29;97400.90;1724950;83;21224;-70
2020/12/09 14:18:29;;;;;;;7.60;2.95;;;;;;;7.23;63.33;97397.32;1724673;83;21200;-69
2020/12/09 14:20:58;;;;;;;9.00;4.47;;;;;;;7.00;64.68;97394.15;1736610;82;21161;-69
2020/12/09 14:23:26;;;;;;;9.58;4.60;;;;;;;7.08;63.94;97394.80;1721703;83;21154;-69
2020/12/09 14:25:53;;;;;;;13.32;6.03;;;;;;;6.97;64.55;97397.01;1721468;83;21142;-69
2020/12/09 14:28:24;;;;;;;9.35;4.50;;;;;;;6.95;64.10;97389.89;1721482;83;21158;-69
2020/12/09 14:30:52;;;;;;;7.42;3.85;;;;;;;6.93;64.48;97393.53;1721551;83;21138;-69
2020/12/09 14:33:19;;;;;;;16.70;4.72;;;;;;;6.89;64.56;97390.41;1721632;83;21224;-69
2020/12/09 14:35:48;;;;;;;14.40;4.42;;;;;;;6.83;65.06;97389.66;1721667;83;21249;-70